Time;durP1;ratioP1;P1;durP2;ratioP2;P2;SDS_P1;SDS_P2;PMS_P1;PMS_P2;Temp;Humidity;BMP_temperature;BMP_pressure;BME280_temperature;BME280_humidity;BME280_pressure;Samples;Min_cycle;Max_cycle;Signal;HPM_P1;HPM_P2
2022/09/16 00:02:51;;;;;;;1.65;0.73;;;;;;;11.78;100.00;100439.13;6251226;28;20049;-74
2022/09/16 00:05:53;;;;;;;1.95;0.50;;;;;;;11.72;100.00;100443.00;6250319;28;20049;-75
2022/09/16 00:08:57;;;;;;;5.25;0.60;;;;;;;11.60;100.00;100436.69;6249999;28;20046;-75
2022/09/16 00:11:58;;;;;;;0.68;0.52;;;;;;;11.63;100.00;100433.06;6250492;28;20060;-75
2022/09/16 00:14:59;;;;;;;6.80;0.70;;;;;;;11.72;100.00;100432.47;6250065;28;20493;-75
2022/09/16 00:18:01;;;;;;;2.33;1.55;;;;;;;11.69;100.00;100436.13;6251565;28;20386;-73
2022/09/16 00:21:06;;;;;;;0.55;0.55;;;;;;;11.67;100.00;100439.78;6249932;28;20050;-75
2022/09/16 00:24:12;;;;;;;3.42;0.73;;;;;;;11.65;100.00;100442.53;6249847;28;20053;-75
2022/09/16 00:27:13;;;;;;;1.55;0.60;;;;;;;11.58;100.00;100443.00;6249929;28;20045;-75
2022/09/16 00:30:15;;;;;;;5.25;0.93;;;;;;;11.67;100.00;100434.53;6249542;28;20046;-75
2022/09/16 00:33:17;;;;;;;0.57;0.50;;;;;;;11.57;100.00;100439.53;6250374;28;20053;-74
2022/09/16 00:36:19;;;;;;;0.85;0.40;;;;;;;11.62;100.00;100441.84;6249577;28;20494;-73
2022/09/16 00:39:22;;;;;;;1.52;0.82;;;;;;;11.64;100.00;100440.84;6251469;28;20512;-75
2022/09/16 00:42:23;;;;;;;1.00;0.50;;;;;;;11.65;100.00;100446.94;6250618;28;20049;-75
2022/09/16 00:45:30;;;;;;;3.60;0.65;;;;;;;11.51;100.00;100446.97;6250320;28;20053;-75
2022/09/16 00:48:32;;;;;;;1.58;0.90;;;;;;;11.53;100.00;100447.69;6250824;28;20046;-75
2022/09/16 00:51:34;;;;;;;0.90;0.60;;;;;;;11.50;100.00;100445.28;6250804;28;20483;-74
2022/09/16 00:54:39;;;;;;;3.50;0.93;;;;;;;11.39;100.00;100446.75;6250954;28;20049;-74
2022/09/16 00:57:41;;;;;;;2.47;0.90;;;;;;;11.36;100.00;100451.41;6249425;28;20060;-76
2022/09/16 01:00:43;;;;;;;2.20;0.80;;;;;;;11.34;100.00;100446.19;6249406;28;20049;-75
2022/09/16 01:03:48;;;;;;;0.50;0.47;;;;;;;11.30;100.00;100449.97;6250604;28;20052;-75
2022/09/16 01:06:51;;;;;;;2.08;1.23;;;;;;;11.40;100.00;100447.63;6251668;28;20057;-76
2022/09/16 01:09:53;;;;;;;1.50;0.80;;;;;;;11.35;100.00;100442.63;6250639;28;20076;-75
2022/09/16 01:12:58;;;;;;;1.35;0.90;;;;;;;11.40;100.00;100453.75;6250776;28;20057;-75
2022/09/16 01:16:06;;;;;;;1.25;0.68;;;;;;;11.45;100.00;100437.66;6250321;28;20045;-76
2022/09/16 01:19:16;;;;;;;2.40;1.08;;;;;;;11.58;100.00;100438.59;6250134;28;20049;-75
2022/09/16 01:22:37;;;;;;;3.00;0.80;;;;;;;11.60;100.00;100435.88;6250191;28;20060;-73
2022/09/16 01:25:59;;;;;;;2.13;0.90;;;;;;;11.40;100.00;100439.75;6248226;28;20061;-76
2022/09/16 01:29:21;;;;;;;0.75;0.73;;;;;;;11.44;100.00;100441.22;6249825;28;20053;-76
2022/09/16 01:32:32;;;;;;;1.40;0.90;;;;;;;11.46;100.00;100441.97;6247794;28;20057;-75
2022/09/16 01:35:48;;;;;;;4.35;0.90;;;;;;;11.43;100.00;100439.53;6250334;28;20053;-75
2022/09/16 01:39:00;;;;;;;1.98;1.00;;;;;;;11.40;100.00;100439.75;6249272;28;20056;-75
2022/09/16 01:42:13;;;;;;;3.15;1.05;;;;;;;11.39;100.00;100441.50;6250708;28;20045;-76
2022/09/16 01:45:20;;;;;;;1.48;0.60;;;;;;;11.29;100.00;100435.13;6249583;28;20053;-76
2022/09/16 01:48:30;;;;;;;2.42;0.70;;;;;;;11.41;100.00;100434.38;6250031;28;20050;-75
2022/09/16 01:51:40;;;;;;;0.93;0.80;;;;;;;11.30;100.00;100428.91;6248510;28;20053;-75
2022/09/16 01:54:45;;;;;;;1.95;0.88;;;;;;;11.30;100.00;100431.53;6248251;28;20045;-75
2022/09/16 01:57:52;;;;;;;0.52;0.52;;;;;;;11.36;100.00;100435.59;6248337;28;20053;-74
2022/09/16 02:00:59;;;;;;;4.18;0.70;;;;;;;11.40;100.00;100434.47;6248528;28;20052;-76
2022/09/16 02:04:07;;;;;;;0.70;0.70;;;;;;;11.43;100.00;100429.84;6247348;28;20045;-75
2022/09/16 02:07:11;;;;;;;2.70;0.77;;;;;;;11.42;100.00;100432.59;6249401;28;20429;-75
2022/09/16 02:10:19;;;;;;;1.13;0.85;;;;;;;11.33;100.00;100433.16;6249055;28;20489;-75
2022/09/16 02:13:25;;;;;;;1.55;0.73;;;;;;;11.31;100.00;100433.25;6249330;28;20057;-76
2022/09/16 02:16:34;;;;;;;1.45;0.80;;;;;;;11.28;100.00;100436.06;6247089;28;20489;-75
2022/09/16 02:19:41;;;;;;;3.08;0.93;;;;;;;11.33;100.00;100433.16;6248774;28;20041;-75
2022/09/16 02:22:44;;;;;;;4.82;1.20;;;;;;;11.23;100.00;100437.28;6248842;28;20066;-75
2022/09/16 02:25:49;;;;;;;1.38;1.00;;;;;;;11.23;100.00;100439.94;6248640;28;20056;-75
2022/09/16 02:28:54;;;;;;;2.30;0.95;;;;;;;11.18;100.00;100440.22;6249523;28;20061;-75
2022/09/16 02:32:00;;;;;;;0.60;0.60;;;;;;;11.07;100.00;100438.19;6248781;28;20052;-75
2022/09/16 02:35:04;;;;;;;1.52;0.98;;;;;;;11.20;100.00;100430.41;6248322;28;20049;-75
2022/09/16 02:38:12;;;;;;;1.27;0.63;;;;;;;11.22;100.00;100425.94;6248252;28;20076;-74
2022/09/16 02:41:14;;;;;;;1.80;0.90;;;;;;;11.16;100.00;100427.13;6248135;28;20054;-75
2022/09/16 02:44:16;;;;;;;2.10;0.93;;;;;;;10.98;100.00;100435.28;6247901;28;20049;-76
2022/09/16 02:47:29;;;;;;;0.95;0.55;;;;;;;11.11;100.00;100426.56;6248046;28;20050;-76
2022/09/16 02:50:40;;;;;;;0.57;0.55;;;;;;;11.15;100.00;100430.72;6247419;28;20050;-75
2022/09/16 02:53:46;;;;;;;2.58;0.95;;;;;;;11.06;100.00;100433.06;6244687;28;20179;-75
2022/09/16 02:56:48;;;;;;;1.25;0.80;;;;;;;11.03;100.00;100433.22;6248186;28;20054;-74
2022/09/16 02:59:50;;;;;;;5.35;0.63;;;;;;;11.12;100.00;100428.25;6247519;28;20056;-75
2022/09/16 03:02:54;;;;;;;3.15;1.13;;;;;;;11.02;100.00;100439.44;6247484;28;20049;-76
2022/09/16 03:06:17;;;;;;;1.65;1.42;;;;;;;11.12;100.00;100430.88;6247447;28;20053;-75
2022/09/16 03:09:22;;;;;;;3.80;0.90;;;;;;;11.01;100.00;100433.31;6252776;28;20060;-75
2022/09/16 03:12:45;;;;;;;5.68;1.38;;;;;;;11.08;100.00;100424.13;6252564;28;20052;-75
2022/09/16 03:15:57;;;;;;;3.35;1.45;;;;;;;11.16;100.00;100415.75;6252018;28;20062;-75
2022/09/16 03:19:09;;;;;;;0.95;0.90;;;;;;;11.14;100.00;100428.19;6252239;28;20049;-76
2022/09/16 03:22:18;;;;;;;1.40;0.90;;;;;;;11.11;100.00;100416.03;6252568;28;20045;-74
2022/09/16 03:25:30;;;;;;;1.60;1.20;;;;;;;11.15;100.00;100416.72;6252214;28;20492;-75
2022/09/16 03:28:37;;;;;;;1.65;1.02;;;;;;;11.19;100.00;100412.97;6252659;28;20056;-75
2022/09/16 03:31:47;;;;;;;1.33;0.85;;;;;;;11.17;100.00;100413.06;6251818;28;20410;-75
2022/09/16 03:34:52;;;;;;;1.45;1.00;;;;;;;11.17;100.00;100420.06;6251752;28;20049;-75
2022/09/16 03:37:58;;;;;;;1.33;1.05;;;;;;;11.21;100.00;100413.69;6252177;28;20402;-75
2022/09/16 03:41:01;;;;;;;5.45;0.88;;;;;;;11.30;100.00;100415.75;6251935;28;20045;-75
2022/09/16 03:44:03;;;;;;;2.38;1.15;;;;;;;11.30;100.00;100415.75;6252532;28;20049;-76
2022/09/16 03:47:05;;;;;;;1.20;1.10;;;;;;;11.31;100.00;100417.47;6252082;28;20045;-75
2022/09/16 03:50:07;;;;;;;5.78;1.23;;;;;;;11.04;100.00;100422.63;6251022;28;20489;-75
2022/09/16 03:53:10;;;;;;;2.85;1.20;;;;;;;11.08;100.00;100429.41;6251416;28;20064;-75
2022/09/16 03:56:11;;;;;;;1.88;1.17;;;;;;;11.12;100.00;100433.50;6251795;28;20673;-75
2022/09/16 03:59:13;;;;;;;2.05;0.95;;;;;;;11.13;100.00;100437.00;6250684;28;20046;-76
2022/09/16 04:02:14;;;;;;;1.50;1.08;;;;;;;11.15;100.00;100430.72;6250303;28;20045;-75
2022/09/16 04:05:15;;;;;;;1.45;1.02;;;;;;;11.22;100.00;100431.19;6250346;28;20045;-75
2022/09/16 04:08:18;;;;;;;2.90;1.17;;;;;;;11.23;100.00;100430.25;6251227;28;20057;-74
2022/09/16 04:11:20;;;;;;;1.50;1.00;;;;;;;11.22;100.00;100423.31;6250161;28;20067;-75
2022/09/16 04:14:22;;;;;;;1.38;1.05;;;;;;;11.31;100.00;100429.75;6249587;28;20045;-74
2022/09/16 04:17:24;;;;;;;1.85;1.52;;;;;;;11.22;100.00;100423.31;6250544;28;20540;-75
2022/09/16 04:20:25;;;;;;;1.17;0.82;;;;;;;11.20;100.00;100421.69;6248976;28;20048;-73
2022/09/16 04:23:29;;;;;;;2.20;0.90;;;;;;;11.22;100.00;100407.53;6250409;28;20139;-74
2022/09/16 04:26:31;;;;;;;4.63;1.02;;;;;;;11.16;100.00;100411.34;6249403;28;20139;-74
2022/09/16 04:29:32;;;;;;;1.48;1.02;;;;;;;11.06;100.00;100430.41;6249467;28;20050;-75
2022/09/16 04:32:33;;;;;;;2.97;1.40;;;;;;;10.98;100.00;100433.50;6248859;28;20420;-74
2022/09/16 04:35:35;;;;;;;1.95;1.20;;;;;;;11.03;100.00;100434.06;6249032;28;20049;-74
2022/09/16 04:38:38;;;;;;;0.98;0.85;;;;;;;11.07;100.00;100432.94;6249233;28;20053;-74
2022/09/16 04:41:39;;;;;;;2.97;1.67;;;;;;;10.99;100.00;100424.69;6249004;28;20204;-74
2022/09/16 04:44:41;;;;;;;4.00;1.10;;;;;;;11.00;100.00;100426.38;6248957;28;20048;-74
2022/09/16 04:47:42;;;;;;;6.05;1.35;;;;;;;11.00;100.00;100415.88;6248844;28;20049;-74
2022/09/16 04:50:44;;;;;;;3.15;1.73;;;;;;;11.02;100.00;100408.72;6248634;28;20394;-75
2022/09/16 04:53:47;;;;;;;2.70;1.40;;;;;;;11.06;100.00;100412.00;6248513;28;20053;-74
2022/09/16 04:56:48;;;;;;;4.30;1.55;;;;;;;11.05;100.00;100411.16;6248906;28;20053;-74
2022/09/16 04:59:49;;;;;;;2.40;1.42;;;;;;;11.05;100.00;100419.06;6248313;28;20057;-75
2022/09/16 05:02:53;;;;;;;3.40;1.60;;;;;;;11.06;100.00;100419.91;6248905;28;20045;-74
2022/09/16 05:05:54;;;;;;;1.58;1.40;;;;;;;11.06;100.00;100419.91;6248256;28;20056;-74
2022/09/16 05:08:58;;;;;;;1.77;1.48;;;;;;;10.97;100.00;100418.66;6248468;28;20517;-74
2022/09/16 05:11:59;;;;;;;1.90;1.50;;;;;;;11.02;100.00;100402.63;6248043;28;20123;-74
2022/09/16 05:15:00;;;;;;;1.42;1.00;;;;;;;11.06;100.00;100401.50;6248300;28;20497;-73
2022/09/16 05:18:02;;;;;;;6.05;1.45;;;;;;;11.01;100.00;100393.88;6248457;28;20049;-75
2022/09/16 05:21:06;;;;;;;4.78;1.38;;;;;;;11.07;100.00;100387.41;6247983;28;20179;-73
2022/09/16 05:24:10;;;;;;;1.42;1.02;;;;;;;11.03;100.00;100383.25;6247919;28;20052;-73
2022/09/16 05:27:11;;;;;;;3.15;1.10;;;;;;;10.93;100.00;100393.50;6249021;28;20060;-74
2022/09/16 05:30:13;;;;;;;1.58;0.93;;;;;;;11.01;100.00;100390.41;6246800;28;20080;-74
2022/09/16 05:33:15;;;;;;;0.73;0.70;;;;;;;10.94;100.00;100392.56;6248150;28;20054;-75
2022/09/16 05:36:17;;;;;;;1.70;0.70;;;;;;;10.89;100.00;100398.09;6249417;28;20049;-75
2022/09/16 05:39:20;;;;;;;2.00;1.00;;;;;;;10.91;100.00;100395.38;6248759;28;20055;-75
2022/09/16 05:42:21;;;;;;;5.50;2.67;;;;;;;10.96;100.00;100405.63;6249071;28;20041;-73
2022/09/16 05:45:23;;;;;;;2.72;1.10;;;;;;;10.82;100.00;100409.09;6247742;28;20053;-74
2022/09/16 05:48:25;;;;;;;1.17;0.77;;;;;;;10.86;100.00;100402.72;6249469;28;20489;-73
2022/09/16 05:51:27;;;;;;;0.70;0.70;;;;;;;10.80;100.00;100409.16;6248717;28;20046;-74
2022/09/16 05:54:30;;;;;;;3.03;1.05;;;;;;;10.85;100.00;100408.88;6248484;28;20482;-74
2022/09/16 05:57:31;;;;;;;1.58;0.90;;;;;;;10.95;100.00;100406.56;6248759;28;20045;-74
2022/09/16 06:00:33;;;;;;;0.88;0.70;;;;;;;10.95;100.00;100420.56;6243049;28;20504;-74
2022/09/16 06:03:36;;;;;;;2.65;0.90;;;;;;;10.91;100.00;100417.25;6247704;28;20053;-75
2022/09/16 06:06:39;;;;;;;5.30;0.93;;;;;;;10.91;100.00;100416.41;6246772;28;20045;-74
2022/09/16 06:09:41;;;;;;;2.55;0.90;;;;;;;11.01;100.00;100416.72;6247656;28;20053;-73
2022/09/16 06:12:43;;;;;;;2.05;0.90;;;;;;;10.95;100.00;100412.66;6247171;28;20041;-75
2022/09/16 06:15:49;;;;;;;2.72;1.08;;;;;;;10.95;100.00;100417.94;6246925;28;20512;-75
2022/09/16 06:18:50;;;;;;;0.80;0.80;;;;;;;11.05;100.00;100405.91;6247317;28;20075;-74
2022/09/16 06:21:52;;;;;;;0.60;0.60;;;;;;;11.08;100.00;100404.88;6247326;28;20416;-75
2022/09/16 06:24:54;;;;;;;4.75;0.90;;;;;;;11.10;100.00;100400.38;6247955;28;20045;-75
2022/09/16 06:27:55;;;;;;;1.55;0.80;;;;;;;11.12;100.00;100406.38;6247440;28;20049;-74
2022/09/16 06:31:05;;;;;;;3.13;0.90;;;;;;;11.11;100.00;100405.53;6247622;28;20053;-75
2022/09/16 06:34:08;;;;;;;2.60;1.20;;;;;;;11.10;100.00;100416.16;6246918;28;20049;-75
2022/09/16 06:37:11;;;;;;;5.05;0.98;;;;;;;11.19;100.00;100410.34;6247423;28;20060;-73
2022/09/16 06:40:14;;;;;;;1.73;1.08;;;;;;;11.26;100.00;100416.03;6246693;28;20065;-75
2022/09/16 06:43:15;;;;;;;1.38;0.88;;;;;;;11.31;100.00;100411.34;6247281;28;20052;-74
2022/09/16 06:46:21;;;;;;;4.60;0.90;;;;;;;11.32;100.00;100403.38;6246647;28;20057;-75
2022/09/16 06:49:22;;;;;;;4.47;1.42;;;;;;;11.23;100.00;100414.47;6247602;28;20037;-75
2022/09/16 06:52:24;;;;;;;4.97;0.65;;;;;;;11.27;100.00;100404.59;6247337;28;20049;-75
2022/09/16 06:55:26;;;;;;;0.70;0.70;;;;;;;11.18;100.00;100395.50;6247143;28;20485;-75
2022/09/16 06:58:29;;;;;;;4.30;0.70;;;;;;;11.30;100.00;100396.50;6246940;28;20056;-74
2022/09/16 07:01:32;;;;;;;1.92;0.77;;;;;;;11.41;100.00;100402.81;6246796;28;20049;-75
2022/09/16 07:04:34;;;;;;;2.35;0.55;;;;;;;11.39;100.00;100399.41;6246560;28;20081;-75
2022/09/16 07:07:35;;;;;;;0.98;0.70;;;;;;;11.56;100.00;100402.78;6247409;28;20049;-75
2022/09/16 07:10:38;;;;;;;0.80;0.50;;;;;;;11.59;100.00;100402.59;6245028;28;20429;-74
2022/09/16 07:13:40;;;;;;;1.48;0.50;;;;;;;11.61;100.00;100403.34;6239320;28;20056;-75
2022/09/16 07:16:41;;;;;;;1.63;0.60;;;;;;;11.69;100.00;100408.97;6242227;28;20204;-75
2022/09/16 07:19:43;;;;;;;1.25;0.70;;;;;;;11.71;100.00;100414.13;6232031;28;20437;-74
2022/09/16 07:22:46;;;;;;;1.10;0.50;;;;;;;11.86;100.00;100414.03;6238982;28;20054;-74
2022/09/16 07:25:59;;;;;;;1.42;0.70;;;;;;;11.85;100.00;100412.31;6243252;28;20049;-75
2022/09/16 07:29:03;;;;;;;2.65;0.73;;;;;;;11.93;100.00;100415.31;6242718;28;20073;-74
2022/09/16 07:32:04;;;;;;;1.40;0.65;;;;;;;11.96;100.00;100423.97;6245473;28;20041;-75
2022/09/16 07:35:06;;;;;;;1.35;0.63;;;;;;;12.02;100.00;100413.88;6245753;28;20052;-75
2022/09/16 07:38:07;;;;;;;0.40;0.40;;;;;;;12.02;100.00;100418.31;6246112;28;20054;-75
2022/09/16 07:41:12;;;;;;;0.45;0.35;;;;;;;12.01;100.00;100419.25;6246117;28;20096;-75
2022/09/16 07:44:15;;;;;;;4.47;0.65;;;;;;;11.94;100.00;100408.25;6244798;28;20437;-75
2022/09/16 07:47:17;;;;;;;5.15;0.75;;;;;;;12.04;100.00;100421.69;6243210;28;20046;-74
2022/09/16 07:50:18;;;;;;;2.83;0.60;;;;;;;12.07;100.00;100427.59;6242954;28;20046;-75
2022/09/16 07:53:20;;;;;;;1.38;0.93;;;;;;;12.20;100.00;100419.75;6247271;28;20500;-74
2022/09/16 07:56:24;;;;;;;1.38;0.50;;;;;;;12.21;100.00;100424.06;6251705;28;20053;-75
2022/09/16 07:59:26;;;;;;;0.35;0.35;;;;;;;12.14;100.00;100421.00;6252716;28;20413;-75
2022/09/16 08:02:27;;;;;;;2.75;0.57;;;;;;;12.21;100.00;100418.78;6251347;28;20394;-76
2022/09/16 08:05:28;;;;;;;3.78;0.80;;;;;;;12.27;100.00;100410.50;6252520;28;20049;-75
2022/09/16 08:08:30;;;;;;;1.77;0.90;;;;;;;12.36;100.00;100420.44;6253420;28;20053;-74
2022/09/16 08:11:33;;;;;;;4.80;0.50;;;;;;;12.51;100.00;100434.38;6252473;28;20132;-74
2022/09/16 08:14:35;;;;;;;2.30;0.38;;;;;;;12.51;100.00;100429.13;6252179;28;20061;-74
2022/09/16 08:17:36;;;;;;;0.57;0.40;;;;;;;12.59;100.00;100434.72;6252689;28;20057;-74
2022/09/16 08:20:37;;;;;;;1.15;0.80;;;;;;;12.62;100.00;100433.66;6253042;28;20416;-76
2022/09/16 08:23:40;;;;;;;0.75;0.52;;;;;;;12.75;100.00;100441.59;6252787;28;20512;-75
2022/09/16 08:26:42;;;;;;;3.38;0.80;;;;;;;12.77;100.00;100431.81;6253474;28;20049;-74
2022/09/16 08:29:44;;;;;;;3.50;0.82;;;;;;;12.82;100.00;100427.91;6252042;28;20050;-74
2022/09/16 08:32:45;;;;;;;1.38;0.82;;;;;;;12.94;100.00;100426.22;6252641;28;20053;-72
2022/09/16 08:35:46;;;;;;;4.95;0.55;;;;;;;13.23;98.25;100433.97;6250995;28;20078;-75
2022/09/16 08:38:54;;;;;;;1.38;0.52;;;;;;;13.19;96.56;100422.75;6251036;28;20045;-74
2022/09/16 08:42:22;;;;;;;0.73;0.45;;;;;;;13.23;95.58;100423.41;6251051;28;20052;-75
2022/09/16 08:45:30;;;;;;;1.38;0.40;;;;;;;13.23;94.42;100424.25;6249520;28;20429;-76
2022/09/16 08:48:38;;;;;;;3.67;0.40;;;;;;;13.34;92.82;100416.41;6252198;28;20525;-75
2022/09/16 08:51:40;;;;;;;2.30;0.60;;;;;;;13.54;92.84;100411.53;6251601;28;20049;-72
2022/09/16 08:54:45;;;;;;;0.65;0.30;;;;;;;13.62;90.25;100410.03;6251451;28;20053;-75
2022/09/16 08:57:56;;;;;;;3.40;0.30;;;;;;;13.60;91.12;100406.66;6251717;28;20516;-74
2022/09/16 09:01:02;;;;;;;4.43;0.57;;;;;;;13.68;88.82;100398.19;6250652;28;20049;-74
2022/09/16 09:04:04;;;;;;;0.75;0.35;;;;;;;13.66;88.67;100400.94;6250538;28;20046;-76
2022/09/16 09:07:15;;;;;;;0.40;0.40;;;;;;;13.76;86.72;100408.19;6250391;28;20054;-74
2022/09/16 09:10:25;;;;;;;3.30;0.60;;;;;;;13.85;84.23;100410.16;6249564;28;20056;-75
2022/09/16 09:13:42;;;;;;;4.40;0.55;;;;;;;14.01;82.62;100405.47;6250192;28;20045;-75
2022/09/16 09:16:53;;;;;;;2.00;0.47;;;;;;;13.95;81.90;100406.75;6250766;28;20056;-75
2022/09/16 09:20:05;;;;;;;1.15;0.77;;;;;;;14.01;81.45;100401.97;6250629;28;20340;-75
2022/09/16 09:23:30;;;;;;;2.55;0.55;;;;;;;14.13;78.89;100401.94;6250458;28;20042;-75
2022/09/16 09:26:43;;;;;;;1.00;0.30;;;;;;;14.18;77.00;100398.94;6248568;28;20383;-73
2022/09/16 09:30:07;;;;;;;0.45;0.30;;;;;;;14.22;78.38;100397.78;6248911;28;20061;-76
2022/09/16 09:33:21;;;;;;;1.35;0.55;;;;;;;14.12;78.31;100400.22;6250082;28;20042;-76
2022/09/16 09:36:41;;;;;;;3.50;0.60;;;;;;;14.19;79.60;100403.28;6249236;28;20489;-75
2022/09/16 09:39:54;;;;;;;1.90;0.47;;;;;;;14.44;78.68;100404.91;6248916;28;20065;-75
2022/09/16 09:43:06;;;;;;;4.18;0.82;;;;;;;14.56;75.25;100413.78;6249379;28;20045;-75
2022/09/16 09:46:14;;;;;;;4.03;0.43;;;;;;;14.50;74.96;100416.91;6248925;28;20140;-75
2022/09/16 09:49:29;;;;;;;1.90;0.43;;;;;;;14.51;73.80;100394.78;6250953;28;20136;-74
2022/09/16 09:52:37;;;;;;;1.52;0.30;;;;;;;14.54;72.66;100400.69;6249125;28;20056;-75
2022/09/16 09:55:41;;;;;;;2.95;1.02;;;;;;;14.64;72.44;100388.44;6246924;28;20053;-74
2022/09/16 09:58:48;;;;;;;2.80;1.13;;;;;;;14.66;73.60;100394.44;6230649;28;20056;-75
2022/09/16 10:01:55;;;;;;;1.17;0.25;;;;;;;14.62;71.22;100387.69;6246791;28;20057;-75
2022/09/16 10:04:56;;;;;;;2.72;0.68;;;;;;;14.53;70.63;100379.63;6248125;28;20068;-74
2022/09/16 10:08:01;;;;;;;4.05;0.40;;;;;;;14.68;69.64;100386.41;6246436;28;20060;-75
2022/09/16 10:11:15;;;;;;;3.85;0.20;;;;;;;14.78;69.90;100379.44;6248702;28;20053;-75
2022/09/16 10:14:24;;;;;;;0.32;0.30;;;;;;;14.80;69.61;100360.81;6248192;28;20456;-74
2022/09/16 10:17:31;;;;;;;1.20;0.73;;;;;;;15.03;68.36;100373.09;6247300;28;20409;-75
2022/09/16 10:20:35;;;;;;;3.28;0.50;;;;;;;15.04;66.96;100366.84;6248512;28;20053;-75
2022/09/16 10:23:37;;;;;;;3.05;0.52;;;;;;;15.08;68.28;100364.78;6248997;28;20485;-74
2022/09/16 10:26:40;;;;;;;3.13;1.17;;;;;;;15.18;65.60;100377.19;6248038;28;20076;-76
2022/09/16 10:29:42;;;;;;;2.40;0.80;;;;;;;15.01;64.58;100372.38;6247696;28;20068;-75
2022/09/16 10:32:50;;;;;;;2.95;0.45;;;;;;;14.89;65.38;100357.44;6247728;28;20053;-75
2022/09/16 10:35:56;;;;;;;6.43;0.40;;;;;;;15.06;66.84;100362.28;6247708;28;20444;-75
2022/09/16 10:39:00;;;;;;;1.52;0.47;;;;;;;15.47;62.41;100356.34;6248542;28;20188;-75
2022/09/16 10:42:02;;;;;;;2.70;0.75;;;;;;;15.56;60.74;100357.41;6247663;28;20052;-74
2022/09/16 10:45:14;;;;;;;2.50;0.43;;;;;;;15.66;61.99;100350.44;6247958;28;20061;-76
2022/09/16 10:48:20;;;;;;;7.53;0.55;;;;;;;15.66;64.05;100349.59;6248692;28;20048;-76
2022/09/16 10:51:24;;;;;;;8.82;0.68;;;;;;;15.44;62.43;100342.50;6247843;28;20282;-74
2022/09/16 10:54:27;;;;;;;3.92;0.65;;;;;;;15.45;62.69;100334.47;6247417;28;20052;-75
2022/09/16 10:57:31;;;;;;;6.13;0.75;;;;;;;15.57;62.78;100334.41;6247992;28;20417;-74
2022/09/16 11:00:40;;;;;;;4.53;0.38;;;;;;;15.95;61.36;100328.69;6247815;28;20057;-75
2022/09/16 11:04:13;;;;;;;3.22;0.98;;;;;;;15.84;57.19;100331.38;6247497;28;20053;-74
2022/09/16 11:07:27;;;;;;;6.43;0.68;;;;;;;15.80;57.76;100333.41;6247714;28;20046;-75
2022/09/16 11:10:36;;;;;;;3.17;0.80;;;;;;;15.79;58.17;100328.25;6247016;28;20049;-75
2022/09/16 11:13:42;;;;;;;;;;;;;;;15.94;54.47;100327.84;6248400;28;20409;-75
2022/09/16 11:17:03;;;;;;;3.97;0.45;;;;;;;16.12;53.18;100332.56;6248174;28;19927;-74
2022/09/16 11:20:31;;;;;;;4.18;0.30;;;;;;;16.27;52.46;100314.56;6247224;28;20064;-73
2022/09/16 11:23:59;;;;;;;0.75;0.20;;;;;;;16.64;52.81;100320.25;6247091;28;20049;-74
2022/09/16 11:27:10;;;;;;;1.10;0.47;;;;;;;16.86;51.54;100311.31;6246250;28;20108;-73
2022/09/16 11:30:14;;;;;;;2.25;0.65;;;;;;;17.05;51.23;100324.66;6252164;28;20482;-71
2022/09/16 11:33:24;;;;;;;4.00;0.60;;;;;;;16.92;51.03;100316.06;6252263;28;20048;-74
2022/09/16 11:36:40;;;;;;;4.53;0.38;;;;;;;16.71;53.66;100306.31;6250654;28;20057;-75
2022/09/16 11:39:53;;;;;;;1.13;0.52;;;;;;;16.55;54.00;100308.59;6246702;28;20065;-75
2022/09/16 11:43:01;;;;;;;3.45;0.47;;;;;;;16.86;48.34;100306.00;6245173;28;20045;-75
2022/09/16 11:46:11;;;;;;;5.60;0.70;;;;;;;16.74;49.18;100329.13;6242556;28;20050;-74
2022/09/16 11:49:33;;;;;;;6.32;0.65;;;;;;;16.02;56.47;100390.81;6244256;28;20052;-74
2022/09/16 11:53:12;;;;;;;2.30;0.32;;;;;;;14.86;66.37;100386.81;6249775;28;20045;-74
2022/09/16 11:56:18;;;;;;;4.65;0.45;;;;;;;14.36;66.17;100383.53;6210683;28;20417;-73
2022/09/16 11:59:26;;;;;;;2.88;0.43;;;;;;;13.82;66.35;100379.56;6245064;28;20060;-73
2022/09/16 12:02:35;;;;;;;0.90;0.52;;;;;;;13.64;67.37;100380.88;6245684;28;20049;-74
2022/09/16 12:05:41;;;;;;;0.27;0.27;;;;;;;13.52;71.13;100371.19;6242924;28;20057;-76
2022/09/16 12:08:53;;;;;;;2.20;0.50;;;;;;;13.65;71.63;100358.81;6239442;28;20052;-75
2022/09/16 12:12:00;;;;;;;0.68;0.20;;;;;;;13.95;67.92;100348.66;6243871;28;20492;-76
2022/09/16 12:15:09;;;;;;;1.08;0.28;;;;;;;14.74;62.78;100340.13;6242436;28;20053;-75
2022/09/16 12:18:17;;;;;;;1.17;0.50;;;;;;;15.24;56.96;100344.09;6247895;28;20045;-75
2022/09/16 12:21:29;;;;;;;2.35;0.32;;;;;;;15.26;56.74;100355.44;6250043;28;20053;-75
2022/09/16 12:24:40;;;;;;;0.20;0.20;;;;;;;15.45;58.06;100344.22;6249352;28;20667;-73
2022/09/16 12:27:47;;;;;;;0.85;0.25;;;;;;;15.55;59.91;100331.91;6250082;28;20515;-74
2022/09/16 12:30:58;;;;;;;1.05;0.47;;;;;;;16.18;57.89;100350.66;6249061;28;20670;-76
2022/09/16 12:34:04;;;;;;;1.50;0.20;;;;;;;15.94;55.77;100332.28;6249548;28;20076;-74
2022/09/16 12:37:15;;;;;;;2.10;0.32;;;;;;;15.76;56.30;100333.78;6250270;28;20057;-73
2022/09/16 12:40:22;;;;;;;0.88;0.60;;;;;;;15.98;56.35;100321.31;6248927;28;20056;-75
2022/09/16 12:43:52;;;;;;;2.65;0.50;;;;;;;16.64;54.29;100312.28;6249149;28;20061;-71
2022/09/16 12:47:06;;;;;;;0.90;0.47;;;;;;;17.14;52.04;100304.44;6246100;28;20137;-73
2022/09/16 12:50:34;;;;;;;6.35;0.52;;;;;;;17.31;51.16;100301.13;6249537;28;20050;-74
2022/09/16 12:53:59;;;;;;;0.50;0.40;;;;;;;16.65;51.95;100300.69;6241790;28;20406;-72
2022/09/16 12:57:21;;;;;;;4.20;0.63;;;;;;;17.24;51.11;100298.16;6238635;28;20041;-74
2022/09/16 13:00:24;;;;;;;3.08;0.40;;;;;;;17.42;50.36;100295.69;6248488;28;20052;-74
2022/09/16 13:03:29;;;;;;;3.35;0.40;;;;;;;17.85;48.30;100299.84;6249033;28;20045;-73
2022/09/16 13:06:33;;;;;;;3.92;0.32;;;;;;;18.08;48.83;100283.59;6248624;28;20049;-73
2022/09/16 13:09:37;;;;;;;4.15;0.68;;;;;;;17.91;48.42;100285.97;6248553;28;20045;-74
2022/09/16 13:12:40;;;;;;;2.22;0.55;;;;;;;17.65;48.82;100275.00;6248736;28;20191;-74
2022/09/16 13:15:43;;;;;;;0.70;0.35;;;;;;;17.61;49.87;100270.13;6248377;28;20068;-73
2022/09/16 13:18:46;;;;;;;4.85;0.50;;;;;;;17.65;51.20;100271.53;6249053;28;20509;-73
2022/09/16 13:21:49;;;;;;;2.10;0.50;;;;;;;17.36;53.81;100276.81;6248217;28;20053;-74
2022/09/16 13:24:55;;;;;;;3.28;0.38;;;;;;;16.46;68.12;100286.34;6248081;28;20041;-74
2022/09/16 13:28:00;;;;;;;2.20;0.52;;;;;;;16.41;74.99;100275.28;6248234;28;20053;-72
2022/09/16 13:31:17;;;;;;;1.95;0.40;;;;;;;16.27;76.43;100269.50;6247819;28;20057;-73
2022/09/16 13:34:19;;;;;;;2.20;0.85;;;;;;;16.33;75.59;100263.66;6247646;28;20554;-72
2022/09/16 13:37:25;;;;;;;1.48;0.30;;;;;;;16.24;72.15;100254.66;6248009;28;20093;-75
2022/09/16 13:40:29;;;;;;;2.28;0.65;;;;;;;16.54;62.98;100258.34;6247773;28;20497;-73
2022/09/16 13:43:36;;;;;;;1.75;0.60;;;;;;;16.44;60.19;100253.81;6248022;28;20049;-74
2022/09/16 13:46:38;;;;;;;0.70;0.40;;;;;;;16.20;57.75;100256.72;6247786;28;20056;-74
2022/09/16 13:49:45;;;;;;;1.75;0.60;;;;;;;16.10;55.12;100260.31;6247925;28;20046;-74
2022/09/16 13:52:47;;;;;;;2.60;0.40;;;;;;;16.26;55.07;100262.47;6246757;28;20081;-73
2022/09/16 13:55:50;;;;;;;0.77;0.30;;;;;;;16.64;55.33;100256.56;6247487;28;20049;-74
2022/09/16 13:59:02;;;;;;;2.45;0.57;;;;;;;16.78;55.52;100261.53;6247669;28;20458;-74
2022/09/16 14:02:14;;;;;;;1.50;0.60;;;;;;;16.34;56.29;100241.47;6247571;28;20053;-73
2022/09/16 14:05:36;;;;;;;2.03;0.40;;;;;;;16.53;57.20;100246.03;6247175;28;20049;-73
2022/09/16 14:08:47;;;;;;;2.20;0.28;;;;;;;16.45;54.20;100258.16;6247886;28;20056;-75
2022/09/16 14:11:56;;;;;;;0.43;0.30;;;;;;;15.94;49.81;100253.66;6246969;28;20073;-73
2022/09/16 14:14:59;;;;;;;0.75;0.68;;;;;;;15.83;50.43;100271.41;6247109;28;20053;-73
2022/09/16 14:18:03;;;;;;;4.15;0.80;;;;;;;15.82;52.23;100248.53;6247214;28;20397;-73
2022/09/16 14:21:06;;;;;;;3.55;0.73;;;;;;;16.16;52.99;100249.16;6247233;28;20053;-75
2022/09/16 14:24:15;;;;;;;0.85;0.40;;;;;;;16.33;53.53;100264.50;6246539;28;20421;-74